createdAt,value
2018-06-02T00:01:38.301Z,5.03
2018-06-02T00:04:06.642Z,5.63
2018-06-02T00:06:34.254Z,5.90
2018-06-02T00:09:02.605Z,4.80
2018-06-02T00:11:31.127Z,5.83
2018-06-02T00:13:58.707Z,4.93
2018-06-02T00:16:27.085Z,5.00
2018-06-02T00:18:54.667Z,5.03
2018-06-02T00:21:23.600Z,5.10
2018-06-02T00:23:51.184Z,4.90
2018-06-02T00:26:18.804Z,5.27
2018-06-02T00:28:46.378Z,4.73
2018-06-02T00:31:13.987Z,4.67
2018-06-02T00:33:41.579Z,4.93
2018-06-02T00:36:09.207Z,5.53
2018-06-02T00:38:37.551Z,5.47
2018-06-02T00:41:05.195Z,6.80
2018-06-02T00:43:32.770Z,5.90
2018-06-02T00:46:00.390Z,5.50
2018-06-02T00:48:27.975Z,5.50
2018-06-02T00:50:55.588Z,5.33
2018-06-02T00:53:23.171Z,6.33
2018-06-02T00:55:50.787Z,6.23
2018-06-02T00:58:18.426Z,7.47
2018-06-02T01:00:46.012Z,6.80
2018-06-02T01:03:13.629Z,7.07
2018-06-02T01:05:41.975Z,7.10
2018-06-02T01:08:09.588Z,7.43
2018-06-02T01:10:37.935Z,7.63
2018-06-02T01:13:05.547Z,8.90
2018-06-02T01:15:33.900Z,9.77
2018-06-02T01:18:01.519Z,7.07
2018-06-02T01:20:29.867Z,7.57
2018-06-02T01:22:57.479Z,6.67
2018-06-02T01:25:25.827Z,6.20
2018-06-02T01:27:53.443Z,7.27
2018-06-02T01:30:21.786Z,6.90
2018-06-02T01:32:49.403Z,7.13
2018-06-02T01:35:17.750Z,6.80
2018-06-02T01:37:45.363Z,7.07
2018-06-02T01:40:13.707Z,6.87
2018-06-02T01:42:41.319Z,7.23
2018-06-02T01:45:08.905Z,7.23
2018-06-02T01:47:37.284Z,6.13
2018-06-02T01:50:04.879Z,6.20
2018-06-02T01:52:33.255Z,5.70
2018-06-02T01:55:01.601Z,5.20
2018-06-02T01:57:29.210Z,6.10
2018-06-02T01:59:56.795Z,6.57
2018-06-02T02:02:25.179Z,6.23
2018-06-02T02:04:53.530Z,6.30
2018-06-02T02:07:21.139Z,5.97
2018-06-02T02:09:48.723Z,6.30
2018-06-02T02:12:17.103Z,5.23
2018-06-02T02:14:45.456Z,5.97
2018-06-02T02:17:13.076Z,5.17
2018-06-02T02:19:41.427Z,5.97
2018-06-02T02:22:09.046Z,5.77
2018-06-02T02:24:36.622Z,5.80
2018-06-02T02:27:04.262Z,6.93
2018-06-02T02:29:31.834Z,5.60
2018-06-02T02:31:59.413Z,6.60
2018-06-02T02:34:27.027Z,5.73
2018-06-02T02:36:54.706Z,6.73
2018-06-02T02:39:22.323Z,5.83
2018-06-02T02:41:49.898Z,5.10
2018-06-02T02:44:18.278Z,6.00
2018-06-02T02:46:45.872Z,6.10
2018-06-02T02:49:13.491Z,6.03
2018-06-02T02:51:41.072Z,6.37
2018-06-02T02:54:08.683Z,6.67
2018-06-02T02:56:36.269Z,6.87
2018-06-02T02:59:04.647Z,5.80
2018-06-02T03:01:32.991Z,6.10
2018-06-02T03:04:00.607Z,5.77
2018-06-02T03:06:28.191Z,5.33
2018-06-02T03:08:56.579Z,5.20
2018-06-02T03:11:24.919Z,5.10
2018-06-02T03:13:52.539Z,4.93
2018-06-02T03:16:20.883Z,5.70
2018-06-02T03:18:48.502Z,3.87
2018-06-02T03:21:16.083Z,4.97
2018-06-02T03:23:44.463Z,5.50
2018-06-02T03:26:12.048Z,6.03
2018-06-02T03:28:40.426Z,4.67
2018-06-02T03:31:08.012Z,4.87
2018-06-02T03:33:36.399Z,5.20
2018-06-02T03:36:04.749Z,5.43
2018-06-02T03:38:32.359Z,4.83
2018-06-02T03:41:00.704Z,5.57
2018-06-02T03:43:28.315Z,5.17
2018-06-02T03:45:55.890Z,4.40
2018-06-02T03:48:24.270Z,4.30
2018-06-02T03:50:51.852Z,4.87
2018-06-02T03:53:20.195Z,4.67
2018-06-02T03:55:47.811Z,4.07
2018-06-02T03:58:15.391Z,4.20
2018-06-02T04:00:43.773Z,4.63
2018-06-02T04:03:11.357Z,5.80
2018-06-02T04:05:39.743Z,4.47
2018-06-02T04:08:08.086Z,5.30
2018-06-02T04:10:35.703Z,3.87
2018-06-02T04:13:03.289Z,4.60
2018-06-02T04:15:31.675Z,4.67
2018-06-02T04:18:00.023Z,4.20
2018-06-02T04:20:27.811Z,4.60
2018-06-02T04:22:55.394Z,4.80
2018-06-02T04:25:23.008Z,4.70
2018-06-02T04:27:50.592Z,3.60
2018-06-02T04:30:18.224Z,5.03
2018-06-02T04:32:45.845Z,4.00
2018-06-02T04:35:13.463Z,5.03
2018-06-02T04:37:41.039Z,5.80
2018-06-02T04:40:08.651Z,4.77
2018-06-02T04:42:36.231Z,4.97
2018-06-02T04:45:04.511Z,4.07
2018-06-02T04:47:32.086Z,6.10
2018-06-02T04:49:59.702Z,5.00
2018-06-02T04:52:27.278Z,5.20
2018-06-02T04:54:54.891Z,6.27
2018-06-02T04:57:23.227Z,5.97
2018-06-02T04:59:50.834Z,6.40
2018-06-02T05:02:18.410Z,7.33
2018-06-02T05:04:46.018Z,6.57
2018-06-02T05:07:13.590Z,7.37
2018-06-02T05:09:41.203Z,7.07
2018-06-02T05:12:08.783Z,6.77
2018-06-02T05:14:36.395Z,9.13
2018-06-02T05:17:04.734Z,7.13
2018-06-02T05:19:32.352Z,6.30
2018-06-02T05:22:00.699Z,6.57
2018-06-02T05:24:28.316Z,8.30
2018-06-02T05:26:56.650Z,6.50
2018-06-02T05:29:24.272Z,6.60
2018-06-02T05:31:52.623Z,6.67
2018-06-02T05:34:20.196Z,6.63
2018-06-02T05:36:47.806Z,6.43
2018-06-02T05:39:16.142Z,6.27
2018-06-02T05:41:43.747Z,6.67
2018-06-02T05:44:11.329Z,6.57
2018-06-02T05:46:38.943Z,5.93
2018-06-02T05:49:06.524Z,5.77
2018-06-02T05:51:34.138Z,6.27
2018-06-02T05:54:01.714Z,5.47
2018-06-02T05:56:29.332Z,4.77
2018-06-02T05:58:56.911Z,5.97
2018-06-02T06:01:24.536Z,4.87
2018-06-02T06:03:52.111Z,4.47
2018-06-02T06:06:19.731Z,4.67
2018-06-02T06:08:47.307Z,4.40
2018-06-02T06:11:14.919Z,4.80
2018-06-02T06:13:42.496Z,4.77
2018-06-02T06:16:10.119Z,5.13
2018-06-02T06:18:37.711Z,4.70
2018-06-02T06:21:05.354Z,5.03
2018-06-02T06:23:33.698Z,4.70
2018-06-02T06:26:01.315Z,4.80
2018-06-02T06:28:29.671Z,4.90
2018-06-02T06:30:57.290Z,5.50
2018-06-02T06:33:24.866Z,3.67
2018-06-02T06:35:52.481Z,4.40
2018-06-02T06:38:20.087Z,5.50
2018-06-02T06:40:48.471Z,5.00
2018-06-02T06:43:16.051Z,4.67
2018-06-02T06:45:43.665Z,4.53
2018-06-02T06:48:11.350Z,4.70
2018-06-02T06:50:39.000Z,5.23
2018-06-02T06:53:06.567Z,4.73
2018-06-02T06:55:34.188Z,7.53
2018-06-02T06:58:01.773Z,6.00
2018-06-02T07:00:31.158Z,6.40
2018-06-02T07:02:58.771Z,6.60
2018-06-02T07:05:26.522Z,7.03
2018-06-02T07:07:54.903Z,7.13
2018-06-02T07:10:22.479Z,5.20
2018-06-02T07:12:50.092Z,4.77
2018-06-02T07:15:18.629Z,5.30
2018-06-02T07:17:46.301Z,5.00
2018-06-02T07:20:14.072Z,6.70
2018-06-02T07:22:41.683Z,4.63
2018-06-02T07:25:09.263Z,6.70
2018-06-02T07:27:36.890Z,8.53
2018-06-02T07:30:05.214Z,7.67
2018-06-02T07:32:32.858Z,8.70
2018-06-02T07:35:00.435Z,6.13
2018-06-02T07:37:28.051Z,5.07
2018-06-02T07:39:55.627Z,4.77
2018-06-02T07:42:23.241Z,5.30
2018-06-02T07:44:50.814Z,8.13
2018-06-02T07:47:18.423Z,5.07
2018-06-02T07:49:46.062Z,4.00
2018-06-02T07:52:14.407Z,4.50
2018-06-02T07:54:43.464Z,4.17
2018-06-02T07:57:11.107Z,5.53
2018-06-02T07:59:39.451Z,5.70
2018-06-02T08:02:07.062Z,3.80
2018-06-02T08:04:35.399Z,3.90
2018-06-02T08:07:03.017Z,4.77
2018-06-02T08:09:31.359Z,3.97
2018-06-02T08:11:59.022Z,3.40
2018-06-02T08:14:26.605Z,5.07
2018-06-02T08:16:54.219Z,4.57
2018-06-02T08:19:23.308Z,5.67
2018-06-02T08:21:50.925Z,4.87
2018-06-02T08:24:19.267Z,4.90
2018-06-02T08:26:46.886Z,5.90
2018-06-02T08:29:15.231Z,6.30
2018-06-02T08:31:42.807Z,4.90
2018-06-02T08:34:10.419Z,4.03
2018-06-02T08:36:38.767Z,5.03
2018-06-02T08:39:06.379Z,5.47
2018-06-02T08:41:34.719Z,4.23
2018-06-02T08:44:02.332Z,4.00
2018-06-02T08:46:29.943Z,5.93
2018-06-02T08:48:57.559Z,6.13
2018-06-02T08:51:25.131Z,4.33
2018-06-02T08:53:53.516Z,10.50
2018-06-02T08:56:21.095Z,4.53
2018-06-02T08:58:48.715Z,11.43
2018-06-02T09:01:16.295Z,5.37
2018-06-02T09:03:43.937Z,7.13
2018-06-02T09:06:12.279Z,7.87
2018-06-02T09:08:39.893Z,27.80
2018-06-02T09:11:07.508Z,34.00
2018-06-02T09:13:35.127Z,28.07
2018-06-02T09:16:02.707Z,20.33
2018-06-02T09:18:30.352Z,24.60
2018-06-02T09:20:57.930Z,14.33
2018-06-02T09:23:25.554Z,13.23
2018-06-02T09:25:53.912Z,14.00
2018-06-02T09:28:21.537Z,10.20
2018-06-02T09:30:49.146Z,10.77
2018-06-02T09:33:16.759Z,9.60
2018-06-02T09:35:45.104Z,8.10
2018-06-02T09:38:12.714Z,7.33
2018-06-02T09:40:41.055Z,5.87
2018-06-02T09:43:08.675Z,5.43
2018-06-02T09:45:37.026Z,5.47
2018-06-02T09:48:04.649Z,5.30
2018-06-02T09:50:33.203Z,5.93
2018-06-02T09:53:00.815Z,5.97
2018-06-02T09:55:29.163Z,5.23
2018-06-02T09:57:56.782Z,5.73
2018-06-02T10:00:25.626Z,4.10
2018-06-02T10:02:53.234Z,4.30
2018-06-02T10:05:21.071Z,5.50
2018-06-02T10:07:48.683Z,5.40
2018-06-02T10:10:16.264Z,4.00
2018-06-02T10:12:44.646Z,5.23
2018-06-02T10:15:12.488Z,6.07
2018-06-02T10:17:40.091Z,3.60
2018-06-02T10:20:08.142Z,4.83
2018-06-02T10:22:35.751Z,4.70
2018-06-02T10:25:03.988Z,5.60
2018-06-02T10:27:31.566Z,3.60
2018-06-02T10:29:59.180Z,4.60
2018-06-02T10:32:26.756Z,4.13
2018-06-02T10:34:54.371Z,3.40
2018-06-02T10:37:21.948Z,4.70
2018-06-02T10:39:49.562Z,4.40
2018-06-02T10:42:17.147Z,4.40
2018-06-02T10:44:44.765Z,6.27
2018-06-02T10:47:12.342Z,4.13
2018-06-02T10:49:39.982Z,5.40
2018-06-02T10:52:08.323Z,4.50
2018-06-02T10:54:35.939Z,4.43
2018-06-02T10:57:04.278Z,4.47
2018-06-02T10:59:31.887Z,3.80
2018-06-02T11:01:59.471Z,7.73
2018-06-02T11:04:27.846Z,6.00
2018-06-02T11:06:55.428Z,5.63
2018-06-02T11:09:23.038Z,4.93
2018-06-02T11:11:50.611Z,4.03
2018-06-02T11:14:18.231Z,3.77
2018-06-02T11:16:45.811Z,3.70
2018-06-02T11:19:13.431Z,4.80
2018-06-02T11:21:41.015Z,7.63
2018-06-02T11:24:08.686Z,3.50
2018-06-02T11:26:36.263Z,3.40
2018-06-02T11:29:03.909Z,3.60
2018-06-02T11:31:31.522Z,3.63
2018-06-02T11:33:59.143Z,5.07
2018-06-02T11:36:27.495Z,3.50
2018-06-02T11:38:55.115Z,4.47
2018-06-02T11:41:23.460Z,6.83
2018-06-02T11:43:51.075Z,3.80
2018-06-02T11:46:19.427Z,4.73
2018-06-02T11:48:48.551Z,4.13
2018-06-02T11:51:16.174Z,4.30
2018-06-02T11:53:43.751Z,4.73
2018-06-02T11:56:11.363Z,4.27
2018-06-02T11:58:38.947Z,3.90
2018-06-02T12:01:06.595Z,4.13
2018-06-02T12:03:34.166Z,3.90
2018-06-02T12:06:01.839Z,5.27
2018-06-02T12:08:29.422Z,3.50
2018-06-02T12:10:57.034Z,3.57
2018-06-02T12:13:24.611Z,3.77
2018-06-02T12:15:52.299Z,3.67
2018-06-02T12:18:19.876Z,3.50
2018-06-02T12:20:47.491Z,3.90
2018-06-02T12:23:15.071Z,3.50
2018-06-02T12:25:44.195Z,2.97
2018-06-02T12:28:12.588Z,3.23
2018-06-02T12:30:40.175Z,3.83
2018-06-02T12:33:07.751Z,2.50
2018-06-02T12:35:35.363Z,2.87
2018-06-02T12:38:02.945Z,3.80
2018-06-02T12:40:30.558Z,4.60
2018-06-02T12:42:58.139Z,3.30
2018-06-02T12:45:26.054Z,3.00
2018-06-02T12:47:53.632Z,3.30
2018-06-02T12:50:21.507Z,3.40
2018-06-02T12:52:49.088Z,3.53
2018-06-02T12:55:16.703Z,3.30
2018-06-02T12:57:45.048Z,3.70
2018-06-02T13:00:12.915Z,4.27
2018-06-02T13:02:40.491Z,3.97
2018-06-02T13:05:08.476Z,4.07
2018-06-02T13:07:36.067Z,3.30
2018-06-02T13:10:03.906Z,13.33
2018-06-02T13:12:31.483Z,6.40
2018-06-02T13:14:59.059Z,6.30
2018-06-02T13:17:26.676Z,9.50
2018-06-02T13:19:54.258Z,12.37
2018-06-02T13:22:22.634Z,8.90
2018-06-02T13:24:50.212Z,8.70
2018-06-02T13:27:18.599Z,6.73
2018-06-02T13:29:46.179Z,9.00
2018-06-02T13:32:14.559Z,6.17
2018-06-02T13:34:42.149Z,7.47
2018-06-02T13:37:10.535Z,8.77
2018-06-02T13:39:38.881Z,10.00
2018-06-02T13:42:06.504Z,6.50
2018-06-02T13:44:34.853Z,6.53
2018-06-02T13:47:02.474Z,6.87
2018-06-02T13:49:30.820Z,6.60
2018-06-02T13:51:58.466Z,8.03
2018-06-02T13:54:26.070Z,12.40
2018-06-02T13:56:53.680Z,8.30
2018-06-02T13:59:22.023Z,7.03
2018-06-02T14:01:49.632Z,6.83
2018-06-02T14:04:17.206Z,8.23
2018-06-02T14:06:45.584Z,8.10
2018-06-02T14:09:13.163Z,9.30
2018-06-02T14:11:40.779Z,8.70
2018-06-02T14:14:08.368Z,6.70
2018-06-02T14:16:35.978Z,7.17
2018-06-02T14:19:03.547Z,5.80
2018-06-02T14:21:31.162Z,6.87
2018-06-02T14:23:58.740Z,9.13
2018-06-02T14:26:26.354Z,6.37
2018-06-02T14:28:53.940Z,8.60
2018-06-02T14:31:21.552Z,6.73
2018-06-02T14:33:49.136Z,6.97
2018-06-02T14:36:16.740Z,7.83
2018-06-02T14:38:44.355Z,5.73
2018-06-02T14:41:11.950Z,6.17
2018-06-02T14:43:39.583Z,6.13
2018-06-02T14:46:07.932Z,5.83
2018-06-02T14:48:35.554Z,5.10
2018-06-02T14:51:03.898Z,4.90
2018-06-02T14:53:31.510Z,6.10
2018-06-02T14:55:59.087Z,5.50
2018-06-02T14:58:27.468Z,5.80
2018-06-02T15:00:55.056Z,4.27
2018-06-02T15:03:23.443Z,5.27
2018-06-02T15:05:51.787Z,4.37
2018-06-02T15:08:19.434Z,5.37
2018-06-02T15:10:47.015Z,4.30
2018-06-02T15:13:14.622Z,4.30
2018-06-02T15:15:42.203Z,4.33
2018-06-02T15:18:09.815Z,3.80
2018-06-02T15:20:37.415Z,4.80
2018-06-02T15:23:05.027Z,5.63
2018-06-02T15:25:32.635Z,3.57
2018-06-02T15:28:00.247Z,4.37
2018-06-02T15:30:28.013Z,4.13
2018-06-02T15:32:55.625Z,3.80
2018-06-02T15:35:23.386Z,3.47
2018-06-02T15:37:50.999Z,5.47
2018-06-02T15:40:18.575Z,3.50
2018-06-02T15:42:46.182Z,4.00
2018-06-02T15:45:14.055Z,3.37
2018-06-02T15:47:41.668Z,2.80
2018-06-02T15:50:09.514Z,3.43
2018-06-02T15:52:37.132Z,3.20
2018-06-02T15:55:05.572Z,3.40
2018-06-02T15:57:33.182Z,5.40
2018-06-02T16:00:00.767Z,3.90
2018-06-02T16:02:29.147Z,3.53
2018-06-02T16:04:56.728Z,3.63
2018-06-02T16:07:25.111Z,3.37
2018-06-02T16:09:52.717Z,3.57
2018-06-02T16:12:20.294Z,3.57
2018-06-02T16:14:47.907Z,3.50
2018-06-02T16:17:15.489Z,2.70
2018-06-02T16:19:43.107Z,3.30
2018-06-02T16:22:10.720Z,3.10
2018-06-02T16:24:38.335Z,3.40
2018-06-02T16:27:06.679Z,3.40
2018-06-02T16:29:34.295Z,3.37
2018-06-02T16:32:02.639Z,3.03
2018-06-02T16:34:30.303Z,2.97
2018-06-02T16:36:57.939Z,2.83
2018-06-02T16:39:26.319Z,3.40
2018-06-02T16:41:54.675Z,2.93
2018-06-02T16:44:22.292Z,4.23
2018-06-02T16:46:50.639Z,3.00
2018-06-02T16:49:18.250Z,2.97
2018-06-02T16:51:45.830Z,2.67
2018-06-02T16:54:14.207Z,3.10
2018-06-02T16:56:42.057Z,2.80
2018-06-02T16:59:09.667Z,3.30
2018-06-02T17:01:38.155Z,3.50
2018-06-02T17:04:05.768Z,3.23
2018-06-02T17:06:33.351Z,3.03
2018-06-02T17:09:00.967Z,5.00
2018-06-02T17:11:28.544Z,3.47
2018-06-02T17:13:56.156Z,4.13
2018-06-02T17:16:23.752Z,3.40
2018-06-02T17:18:51.457Z,3.93
2018-06-02T17:21:19.020Z,5.07
2018-06-02T17:23:46.635Z,5.07
2018-06-02T17:26:14.215Z,4.00
2018-06-02T17:28:41.902Z,3.97
2018-06-02T17:31:09.523Z,6.13
2018-06-02T17:33:37.135Z,5.60
2018-06-02T17:36:04.716Z,4.53
2018-06-02T17:38:32.335Z,5.37
2018-06-02T17:40:59.919Z,5.60
2018-06-02T17:43:27.495Z,7.83
2018-06-02T17:45:55.107Z,6.50
2018-06-02T17:48:22.693Z,6.20
2018-06-02T17:50:50.307Z,6.57
2018-06-02T17:53:17.896Z,6.40
2018-06-02T17:55:46.279Z,7.20
2018-06-02T17:58:14.623Z,7.30
2018-06-02T18:00:42.259Z,7.90
2018-06-02T18:03:10.604Z,9.20
2018-06-02T18:05:38.220Z,10.77
2018-06-02T18:08:05.803Z,10.67
2018-06-02T18:10:33.463Z,11.43
2018-06-02T18:13:01.836Z,18.83
2018-06-02T18:15:29.631Z,21.93
2018-06-02T18:17:57.974Z,34.50
2018-06-02T18:20:25.818Z,27.10
2018-06-02T18:22:53.402Z,16.37
2018-06-02T18:25:21.022Z,17.90
2018-06-02T18:27:48.604Z,14.47
2018-06-02T18:30:16.426Z,14.33
2018-06-02T18:32:44.020Z,14.23
2018-06-02T18:35:11.839Z,14.90
2018-06-02T18:37:40.199Z,17.97
2018-06-02T18:40:07.847Z,27.70
2018-06-02T18:42:35.427Z,31.40
2018-06-02T18:45:04.217Z,36.97
2018-06-02T18:47:31.807Z,32.43
2018-06-02T18:49:59.422Z,30.57
2018-06-02T18:52:27.778Z,31.60
2018-06-02T18:54:55.399Z,28.80
2018-06-02T18:57:23.756Z,28.67
2018-06-02T18:59:51.379Z,26.73
2018-06-02T19:02:19.120Z,25.80
2018-06-02T19:04:46.744Z,24.83
2018-06-02T19:07:14.363Z,22.27
2018-06-02T19:09:41.952Z,23.03
2018-06-02T19:12:09.672Z,21.10
2018-06-02T19:14:37.275Z,16.90
2018-06-02T19:17:05.086Z,18.27
2018-06-02T19:19:32.764Z,15.67
2018-06-02T19:22:01.151Z,14.67
2018-06-02T19:24:29.503Z,13.73
2018-06-02T19:26:57.120Z,13.37
2018-06-02T19:29:24.814Z,11.83
2018-06-02T19:31:52.784Z,10.90
2018-06-02T19:34:20.382Z,10.97
2018-06-02T19:36:48.006Z,11.10
2018-06-02T19:39:15.647Z,10.90
2018-06-02T19:41:43.275Z,11.17
2018-06-02T19:44:10.951Z,10.80
2018-06-02T19:46:38.567Z,9.33
2018-06-02T19:49:06.156Z,10.67
2018-06-02T19:51:33.767Z,10.10
2018-06-02T19:54:01.343Z,9.87
2018-06-02T19:56:28.960Z,10.13
2018-06-02T19:59:41.343Z,9.67
2018-06-02T20:02:10.219Z,9.67
2018-06-02T20:04:39.206Z,10.93
2018-06-02T20:07:08.247Z,12.47
2018-06-02T20:09:37.219Z,12.30
2018-06-02T20:12:06.063Z,13.17
2018-06-02T20:14:35.019Z,13.03
2018-06-02T20:17:04.067Z,13.70
2018-06-02T20:19:33.137Z,13.73
2018-06-02T20:22:02.062Z,12.87
2018-06-02T20:24:30.867Z,12.17
2018-06-02T20:26:59.747Z,11.53
2018-06-02T20:29:28.647Z,12.97
2018-06-02T20:31:57.684Z,11.80
2018-06-02T20:34:26.655Z,11.70
2018-06-02T20:36:55.662Z,13.03
2018-06-02T20:39:24.666Z,12.60
2018-06-02T20:41:53.915Z,11.87
2018-06-02T20:44:22.988Z,13.00
2018-06-02T20:46:52.311Z,13.03
2018-06-02T20:49:21.411Z,14.20
2018-06-02T20:51:50.305Z,12.77
2018-06-02T20:54:19.123Z,12.67
2018-06-02T20:56:48.147Z,12.53
2018-06-02T20:59:17.229Z,13.03
2018-06-02T21:01:46.266Z,13.93
2018-06-02T21:04:15.307Z,14.00
2018-06-02T21:06:44.484Z,14.97
2018-06-02T21:09:13.455Z,14.10
2018-06-02T21:11:42.503Z,13.47
2018-06-02T21:14:12.212Z,13.97
2018-06-02T21:16:41.059Z,13.07
2018-06-02T21:19:09.864Z,13.67
2018-06-02T21:21:38.929Z,14.10
2018-06-02T21:24:07.889Z,14.57
2018-06-02T21:26:36.767Z,13.90
2018-06-02T21:29:05.567Z,13.63
2018-06-02T21:31:34.425Z,12.77
2018-06-02T21:34:03.407Z,13.27
2018-06-02T21:36:32.547Z,12.07
2018-06-02T21:39:01.619Z,10.40
2018-06-02T21:41:30.672Z,9.83
2018-06-02T21:43:59.839Z,11.13
2018-06-02T21:46:28.643Z,9.80
2018-06-02T21:48:56.957Z,12.47
2018-06-02T21:51:25.795Z,10.07
2018-06-02T21:53:54.628Z,9.10
2018-06-02T21:56:23.484Z,8.90
2018-06-02T21:58:52.567Z,9.37
2018-06-02T22:01:23.628Z,9.43
2018-06-02T22:03:52.867Z,9.43
2018-06-02T22:06:21.784Z,10.20
2018-06-02T22:08:50.747Z,9.03
2018-06-02T22:11:19.564Z,9.33
2018-06-02T22:13:48.514Z,9.00
2018-06-02T22:16:17.476Z,9.23
2018-06-02T22:18:46.319Z,8.73
2018-06-02T22:21:15.131Z,8.40
2018-06-02T22:23:44.168Z,7.57
2018-06-02T22:26:13.135Z,8.20
2018-06-02T22:28:42.171Z,9.67
2018-06-02T22:31:11.148Z,8.43
2018-06-02T22:33:40.188Z,8.10
2018-06-02T22:36:09.295Z,8.30
2018-06-02T22:38:38.400Z,7.53
2018-06-02T22:41:07.474Z,8.30
2018-06-02T22:43:36.618Z,8.43
2018-06-02T22:46:05.795Z,7.90
2018-06-02T22:48:34.832Z,8.33
2018-06-02T22:51:04.008Z,7.93
2018-06-02T22:53:33.242Z,8.43
2018-06-02T22:56:02.404Z,7.27
2018-06-02T22:58:31.279Z,7.60
2018-06-02T23:01:00.158Z,7.17
2018-06-02T23:03:29.155Z,6.50
2018-06-02T23:05:58.159Z,7.20
2018-06-02T23:08:27.203Z,7.30
2018-06-02T23:10:56.192Z,6.80
2018-06-02T23:13:25.061Z,6.30
2018-06-02T23:15:53.858Z,6.67
2018-06-02T23:18:22.727Z,6.53
2018-06-02T23:20:51.539Z,7.20
2018-06-02T23:23:20.394Z,6.63
2018-06-02T23:25:49.196Z,6.80
2018-06-02T23:28:18.121Z,6.60
2018-06-02T23:30:47.003Z,7.00
2018-06-02T23:33:15.851Z,7.40
2018-06-02T23:35:44.723Z,8.23
2018-06-02T23:38:13.566Z,7.83
2018-06-02T23:40:42.371Z,8.73
2018-06-02T23:43:11.211Z,9.80
2018-06-02T23:45:40.028Z,9.23
2018-06-02T23:48:08.875Z,9.80
2018-06-02T23:50:37.678Z,10.10
2018-06-02T23:53:06.515Z,9.80
2018-06-02T23:55:35.520Z,9.83
2018-06-02T23:58:04.599Z,10.23
